Time;durP1;ratioP1;P1;durP2;ratioP2;P2;SDS_P1;SDS_P2;PMS_P1;PMS_P2;Temp;Humidity;BMP_temperature;BMP_pressure;BME280_temperature;BME280_humidity;BME280_pressure;Samples;Min_cycle;Max_cycle;Signal;HPM_P1;HPM_P2
2021/10/19 00:02:02;;;;;;;;;24.25;20.25;;;;;17.99;59.54;101514.84;5070274;28;45339;-58
2021/10/19 00:04:27;;;;;;;;;19.75;19.75;;;;;18.01;59.36;101510.34;5067990;27;45462;-58
2021/10/19 00:06:53;;;;;;;;;23.75;22.00;;;;;18.00;59.54;101516.59;5077254;27;45358;-58
2021/10/19 00:09:18;;;;;;;;;18.25;18.25;;;;;18.00;59.46;101527.22;5078410;27;45364;-58
2021/10/19 00:11:43;;;;;;;;;17.75;16.50;;;;;18.00;59.31;101521.91;5071226;28;45311;-58
2021/10/19 00:14:09;;;;;;;;;20.25;19.50;;;;;18.01;59.57;101521.84;5067471;27;45239;-58
2021/10/19 00:16:34;;;;;;;;;20.00;17.75;;;;;17.99;59.45;101517.50;5071259;27;46294;-58
2021/10/19 00:19:02;;;;;;;;;22.00;16.75;;;;;17.97;59.17;101522.00;5073302;28;45202;-58
2021/10/19 00:21:28;;;;;;;;;19.25;15.00;;;;;17.95;59.63;101518.50;5070229;28;45260;-58
2021/10/19 00:23:53;;;;;;;;;16.50;13.75;;;;;17.95;59.91;101524.72;5080949;27;45304;-58
2021/10/19 00:26:18;;;;;;;;;16.50;16.50;;;;;17.96;59.90;101513.16;5070735;27;45377;-58
2021/10/19 00:28:44;;;;;;;;;15.75;15.75;;;;;17.96;59.70;101514.94;5064517;28;45426;-58
2021/10/19 00:31:09;;;;;;;;;21.75;19.25;;;;;17.98;59.82;101515.75;5081204;28;45366;-58
2021/10/19 00:33:35;;;;;;;;;17.00;15.50;;;;;17.97;59.66;101512.22;5065892;28;45614;-58
2021/10/19 00:36:00;;;;;;;;;19.00;16.50;;;;;17.96;59.62;101506.97;5073212;27;45418;-58
2021/10/19 00:38:26;;;;;;;;;17.75;15.25;;;;;18.00;59.73;101505.97;5074172;28;45348;-58
2021/10/19 00:40:51;;;;;;;;;18.50;17.00;;;;;17.97;60.00;101506.03;5066272;28;45493;-58
2021/10/19 00:43:17;;;;;;;;;17.50;17.25;;;;;18.01;59.89;101513.00;5080767;28;45339;-58
2021/10/19 00:45:43;;;;;;;;;15.50;14.75;;;;;18.00;59.73;101506.81;5080736;27;45374;-58
2021/10/19 00:48:10;;;;;;;;;17.00;16.50;;;;;18.00;59.61;101513.94;5079434;28;45364;-58
2021/10/19 00:50:36;;;;;;;;;15.00;14.00;;;;;18.02;59.90;101514.72;5080918;27;45242;-58
2021/10/19 00:53:02;;;;;;;;;14.00;13.75;;;;;18.01;59.62;101510.34;5079367;28;45252;-58
2021/10/19 00:55:30;;;;;;;;;17.75;15.25;;;;;17.98;59.79;101505.97;5079429;28;48093;-58
2021/10/19 00:57:56;;;;;;;;;15.00;13.50;;;;;17.96;59.79;101499.88;5078018;27;45534;-58
2021/10/19 01:00:21;;;;;;;;;19.25;17.00;;;;;18.01;59.92;101502.34;5067832;28;45344;-58
2021/10/19 01:02:47;;;;;;;;;9.00;9.00;;;;;18.00;60.24;101498.84;5067088;27;45331;-58
2021/10/19 01:05:13;;;;;;;;;17.75;13.50;;;;;17.98;60.04;101505.97;5069739;28;46901;-58
2021/10/19 01:07:38;;;;;;;;;15.00;14.50;;;;;17.98;60.26;101499.81;5076255;28;45435;-58
2021/10/19 01:10:05;;;;;;;;;16.25;16.25;;;;;17.97;60.10;101498.91;5076059;28;45877;-59
2021/10/19 01:12:32;;;;;;;;;16.75;13.25;;;;;18.03;60.51;101520.00;5073534;28;45284;-58
2021/10/19 01:14:58;;;;;;;;;14.00;13.50;;;;;18.04;60.28;101512.91;5068478;28;47395;-57
2021/10/19 01:17:24;;;;;;;;;15.50;14.50;;;;;18.02;60.50;101522.72;5066876;28;45414;-57
2021/10/19 01:19:50;;;;;;;;;16.75;15.00;;;;;18.02;60.39;101525.38;5070419;27;45373;-57
2021/10/19 01:22:16;;;;;;;;;13.00;13.00;;;;;18.06;60.16;101527.00;5055591;28;45345;-57
2021/10/19 01:24:43;;;;;;;;;15.25;15.25;;;;;18.06;59.83;101529.66;5070084;28;45456;-57
2021/10/19 01:27:09;;;;;;;;;11.75;10.50;;;;;18.08;60.32;101529.63;5066790;28;45326;-58
2021/10/19 01:29:34;;;;;;;;;19.75;17.00;;;;;18.08;60.34;101532.28;5078023;27;45220;-58
2021/10/19 01:32:01;;;;;;;;;15.50;15.50;;;;;18.08;60.15;101527.84;5078668;28;45210;-57
2021/10/19 01:34:31;;;;;;;;;14.00;10.25;;;;;18.08;60.15;101530.50;5068363;28;46061;-58
2021/10/19 01:36:57;;;;;;;;;12.50;11.75;;;;;18.11;59.98;101525.09;5066556;27;45505;-57
2021/10/19 01:39:22;;;;;;;;;11.50;10.00;;;;;18.12;60.26;101533.91;5070855;27;45455;-58
2021/10/19 01:41:47;;;;;;;;;15.25;15.25;;;;;18.10;59.80;101523.34;5074920;28;45377;-57
2021/10/19 01:44:14;;;;;;;;;14.50;14.50;;;;;18.12;60.16;101524.13;5070476;27;45275;-57
2021/10/19 01:46:39;;;;;;;;;15.25;15.25;;;;;18.10;60.10;101506.50;5074583;28;45787;-57
2021/10/19 01:49:04;;;;;;;;;16.50;13.50;;;;;18.12;60.04;101524.13;5070386;27;45962;-58
2021/10/19 01:51:30;;;;;;;;;17.50;14.75;;;;;18.15;59.82;101523.16;5073249;28;45435;-57
2021/10/19 01:53:55;;;;;;;;;15.75;14.50;;;;;18.14;60.06;101518.78;5069342;28;45303;-58
2021/10/19 01:56:21;;;;;;;;;14.50;13.00;;;;;18.12;60.35;101513.50;5066584;27;45185;-57
2021/10/19 01:58:46;;;;;;;;;16.50;15.00;;;;;18.15;60.16;101518.72;5075319;27;45351;-57
2021/10/19 02:01:12;;;;;;;;;14.25;12.75;;;;;18.15;60.17;101513.41;5093146;27;45327;-58
2021/10/19 02:03:37;;;;;;;;;16.75;15.25;;;;;18.13;60.20;101514.38;5089975;27;45347;-58
2021/10/19 02:06:02;;;;;;;;;15.00;14.25;;;;;18.12;59.93;101524.13;5097056;27;45178;-58
2021/10/19 02:08:28;;;;;;;;;15.00;14.75;;;;;18.16;59.82;101533.78;5077010;28;45249;-57
2021/10/19 02:10:53;;;;;;;;;13.50;12.50;;;;;18.16;59.55;101539.09;5082775;27;45229;-57
2021/10/19 02:13:19;;;;;;;;;14.75;14.00;;;;;18.16;60.04;101531.13;5089982;27;46224;-57
2021/10/19 02:15:44;;;;;;;;;17.50;15.50;;;;;18.14;59.69;101527.63;5093128;27;45350;-58
2021/10/19 02:18:10;;;;;;;;;13.50;13.50;;;;;18.17;60.12;101527.50;5071804;27;45371;-57
2021/10/19 02:20:37;;;;;;;;;15.75;15.75;;;;;18.17;60.23;101538.16;5086179;27;45406;-57
2021/10/19 02:23:03;;;;;;;;;15.25;13.50;;;;;18.14;59.70;101529.44;5090146;27;45243;-57
2021/10/19 02:25:28;;;;;;;;;17.50;16.00;;;;;18.18;60.22;101526.59;5094519;27;45525;-57
2021/10/19 02:27:55;;;;;;;;;16.75;14.25;;;;;18.19;60.02;101523.03;5083445;27;45241;-57
2021/10/19 02:30:21;;;;;;;;;17.25;14.75;;;;;18.19;60.02;101523.03;5100248;27;45406;-57
2021/10/19 02:32:47;;;;;;;;;14.75;13.00;;;;;18.23;59.92;101517.63;5095165;27;45289;-57
2021/10/19 02:35:15;;;;;;;;;12.00;12.00;;;;;18.19;59.87;101507.06;5096414;27;45438;-57
2021/10/19 02:37:42;;;;;;;;;14.75;12.75;;;;;18.17;60.05;101500.91;5091711;27;45500;-58
2021/10/19 02:40:09;;;;;;;;;13.25;12.75;;;;;18.16;59.59;101507.19;5089720;27;45315;-57
2021/10/19 02:42:34;;;;;;;;;17.75;15.25;;;;;18.16;59.96;101493.00;5083391;27;45297;-57
2021/10/19 02:45:00;;;;;;;;;16.25;16.00;;;;;18.18;59.93;101505.31;5089308;27;45530;-57
2021/10/19 02:47:26;;;;;;;;;16.75;14.00;;;;;18.17;59.69;101500.06;5103307;27;45416;-57
2021/10/19 02:49:51;;;;;;;;;16.25;15.25;;;;;18.19;59.86;101499.06;5071417;27;45544;-58
2021/10/19 02:52:17;;;;;;;;;13.75;12.75;;;;;18.21;60.00;101511.47;5093963;27;46099;-57
2021/10/19 02:54:43;;;;;;;;;17.00;15.25;;;;;18.19;59.75;101512.38;5096255;27;45413;-57
2021/10/19 02:57:09;;;;;;;;;15.75;15.75;;;;;18.19;60.25;101512.38;5073816;27;45186;-57
2021/10/19 02:59:34;;;;;;;;;17.00;14.50;;;;;18.19;59.79;101517.69;5088980;27;45318;-57
2021/10/19 03:02:00;;;;;;;;;14.00;14.00;;;;;18.18;60.08;101517.75;5093370;27;45311;-57
2021/10/19 03:04:25;;;;;;;;;14.00;13.50;;;;;18.16;60.01;101512.50;5096171;27;45308;-57
2021/10/19 03:06:50;;;;;;;;;14.75;14.75;;;;;18.16;59.74;101506.28;5092185;27;45296;-58
2021/10/19 03:09:15;;;;;;;;;13.75;11.75;;;;;18.17;59.93;101506.22;5081064;27;45256;-57
2021/10/19 03:11:41;;;;;;;;;19.25;19.25;;;;;18.17;59.98;101506.22;5091774;27;46097;-58
2021/10/19 03:14:06;;;;;;;;;15.00;13.00;;;;;18.17;59.68;101506.22;5089089;27;45286;-57
2021/10/19 03:16:32;;;;;;;;;12.75;12.75;;;;;18.16;59.83;101501.84;5093267;27;45306;-57
2021/10/19 03:18:57;;;;;;;;;16.50;15.75;;;;;18.21;60.10;101511.47;5095845;27;45422;-58
2021/10/19 03:21:22;;;;;;;;;16.00;14.75;;;;;18.19;59.93;101508.88;5091830;27;45936;-57
2021/10/19 03:23:48;;;;;;;;;17.75;16.00;;;;;18.19;60.06;101504.41;5084264;27;45246;-57
2021/10/19 03:26:16;;;;;;;;;14.25;13.25;;;;;18.16;60.10;101506.28;5084490;27;45233;-58
2021/10/19 03:28:45;;;;;;;;;17.25;17.25;;;;;18.17;60.19;101524.00;5096768;27;45768;-58
2021/10/19 03:31:11;;;;;;;;;15.50;15.00;;;;;18.18;59.71;101515.97;5102251;27;45440;-57
2021/10/19 03:33:36;;;;;;;;;14.75;13.50;;;;;18.18;59.88;101518.63;5082258;27;45440;-57
2021/10/19 03:36:04;;;;;;;;;16.25;16.25;;;;;18.15;60.08;101512.53;5093247;27;45243;-57
2021/10/19 03:38:30;;;;;;;;;17.50;15.25;;;;;18.21;59.95;101520.31;5095194;27;45465;-57
2021/10/19 03:40:55;;;;;;;;;15.75;14.25;;;;;18.21;59.67;101520.31;5089571;27;45478;-57
2021/10/19 03:43:20;;;;;;;;;17.75;15.75;;;;;18.22;59.85;101526.50;5099973;27;45257;-57
2021/10/19 03:45:46;;;;;;;;;12.00;12.00;;;;;18.20;59.69;101523.91;5072716;27;45303;-57
2021/10/19 03:48:11;;;;;;;;;24.25;22.50;;;;;18.21;59.96;101525.63;5099652;27;45352;-57
2021/10/19 03:50:36;;;;;;;;;13.25;13.25;;;;;18.20;59.46;101529.22;5091002;27;45303;-57
2021/10/19 03:53:02;;;;;;;;;23.50;22.25;;;;;18.21;59.58;101530.09;5102173;27;45415;-58
2021/10/19 03:55:27;;;;;;;;;16.50;15.00;;;;;18.24;59.92;101535.28;5093704;27;45177;-57
2021/10/19 03:57:52;;;;;;;;;16.75;15.00;;;;;18.25;59.58;101535.25;5095109;27;45620;-57
2021/10/19 04:00:18;;;;;;;;;16.75;16.75;;;;;18.26;59.65;101544.94;5071806;27;47116;-57
2021/10/19 04:02:43;;;;;;;;;14.00;13.75;;;;;18.26;59.86;101538.78;5088444;27;45489;-57
2021/10/19 04:05:08;;;;;;;;;16.00;13.25;;;;;18.26;59.54;101536.13;5084019;27;45242;-58
2021/10/19 04:07:37;;;;;;;;;18.25;15.00;;;;;18.22;59.76;101542.47;5101944;27;45339;-57
2021/10/19 04:10:04;;;;;;;;;13.75;13.75;;;;;18.23;59.91;101537.09;5092527;27;46168;-57
2021/10/19 04:12:30;;;;;;;;;19.25;15.75;;;;;18.24;59.85;101536.19;5094873;27;45208;-57
2021/10/19 04:14:55;;;;;;;;;13.50;13.50;;;;;18.25;59.74;101547.66;5091030;27;45314;-58
2021/10/19 04:17:20;;;;;;;;;14.75;14.75;;;;;18.24;59.69;101545.94;5088095;27;45531;-57
2021/10/19 04:19:46;;;;;;;;;16.75;15.50;;;;;18.24;59.63;101548.59;5092183;27;45952;-57
2021/10/19 04:22:11;;;;;;;;;16.00;15.00;;;;;18.25;59.58;101542.34;5094913;27;45337;-57
2021/10/19 04:24:37;;;;;;;;;18.00;18.00;;;;;18.23;59.60;101549.53;5091117;27;45296;-58
2021/10/19 04:27:02;;;;;;;;;15.50;14.00;;;;;18.22;59.84;101547.78;5085275;27;45319;-57
2021/10/19 04:29:28;;;;;;;;;18.25;17.00;;;;;18.23;59.60;101557.50;5090925;27;45217;-57
2021/10/19 04:31:53;;;;;;;;;13.25;13.25;;;;;18.23;59.77;101554.84;5100965;27;45393;-57
2021/10/19 04:34:18;;;;;;;;;12.00;12.00;;;;;18.25;59.33;101560.97;5088807;27;45282;-57
2021/10/19 04:36:44;;;;;;;;;16.50;14.25;;;;;18.25;59.39;101559.19;5087882;27;45557;-57
2021/10/19 04:39:09;;;;;;;;;16.25;13.50;;;;;18.28;59.44;101558.22;5094154;27;46120;-58
2021/10/19 04:41:36;;;;;;;;;15.50;15.25;;;;;18.27;59.55;101565.31;5093983;27;45293;-57
2021/10/19 04:44:01;;;;;;;;;14.75;13.75;;;;;18.26;59.70;101560.91;5075480;28;45310;-57
2021/10/19 04:46:27;;;;;;;;;13.25;13.25;;;;;18.28;59.56;101552.91;5064090;27;45632;-58
2021/10/19 04:48:52;;;;;;;;;14.25;13.50;;;;;18.29;59.44;101565.28;5080383;27;46104;-58
2021/10/19 04:51:17;;;;;;;;;13.50;13.50;;;;;18.26;59.40;101552.06;5063219;27;45440;-58
2021/10/19 04:53:43;;;;;;;;;15.50;14.00;;;;;18.26;59.62;101544.09;5101437;27;45427;-58
2021/10/19 04:56:09;;;;;;;;;15.75;14.00;;;;;18.25;59.60;101550.34;5082831;27;45545;-58
2021/10/19 04:58:35;;;;;;;;;14.50;14.50;;;;;18.22;59.60;101547.78;5093443;27;46461;-58
2021/10/19 05:01:00;;;;;;;;;17.75;16.25;;;;;18.24;59.46;101551.25;5094268;27;45271;-58
2021/10/19 05:03:25;;;;;;;;;20.75;16.50;;;;;18.23;59.47;101546.88;5088399;27;45236;-58
2021/10/19 05:05:51;;;;;;;;;14.25;14.25;;;;;18.20;59.59;101542.53;5087524;27;45398;-59
2021/10/19 05:08:17;;;;;;;;;14.50;14.50;;;;;18.18;59.32;101539.91;5100526;27;46127;-58
2021/10/19 05:10:43;;;;;;;;;13.75;13.00;;;;;18.17;59.38;101551.44;5087384;27;45319;-58
2021/10/19 05:13:10;;;;;;;;;20.00;17.25;;;;;18.16;59.23;101543.53;5093411;27;45283;-58
2021/10/19 05:15:35;;;;;;;;;17.50;15.75;;;;;18.13;59.35;101547.16;5075578;27;46032;-58
2021/10/19 05:18:00;;;;;;;;;18.75;16.00;;;;;18.15;59.63;101547.09;5088149;27;46058;-59
2021/10/19 05:20:26;;;;;;;;;15.50;15.25;;;;;18.13;59.41;101549.81;5087221;27;45306;-58
2021/10/19 05:22:51;;;;;;;;;18.50;16.75;;;;;18.12;59.56;101541.91;5079234;28;45448;-58
2021/10/19 05:25:17;;;;;;;;;13.75;13.75;;;;;18.07;59.51;101541.19;5075743;27;45380;-59
2021/10/19 05:27:42;;;;;;;;;18.00;18.00;;;;;18.05;59.63;101537.69;5088969;27;45475;-57
2021/10/19 05:30:08;;;;;;;;;17.75;15.75;;;;;18.00;59.73;101536.06;5100452;27;45265;-58
2021/10/19 05:32:34;;;;;;;;;20.75;17.00;;;;;18.01;59.46;101535.16;5094372;27;45281;-56
2021/10/19 05:34:59;;;;;;;;;20.50;16.75;;;;;18.02;59.73;101536.00;5093293;27;45560;-57
2021/10/19 05:37:25;;;;;;;;;15.25;15.00;;;;;17.96;59.57;101541.53;5094109;27;45306;-55
2021/10/19 05:39:50;;;;;;;;;15.25;13.75;;;;;17.93;59.58;101520.34;5093341;27;45207;-56
2021/10/19 05:42:16;;;;;;;;;17.75;15.75;;;;;17.99;59.99;101530.81;5097574;27;45443;-57
2021/10/19 05:44:41;;;;;;;;;14.75;14.75;;;;;17.98;59.82;101527.25;5087016;27;45281;-57
2021/10/19 05:47:07;;;;;;;;;21.00;15.75;;;;;17.95;59.63;101529.13;5099956;27;46199;-57
2021/10/19 05:49:32;;;;;;;;;15.50;15.50;;;;;17.95;59.46;101535.34;5087230;27;45220;-57
2021/10/19 05:51:58;;;;;;;;;17.50;14.75;;;;;17.96;59.58;101530.88;5093677;27;45286;-59
2021/10/19 05:54:24;;;;;;;;;19.50;15.25;;;;;17.92;59.57;101530.09;5093418;27;45232;-59
2021/10/19 05:56:51;;;;;;;;;20.75;16.25;;;;;17.95;59.70;101537.13;5086536;27;45276;-60
2021/10/19 05:59:17;;;;;;;;;15.25;15.25;;;;;17.94;59.63;101532.75;5086220;27;45341;-58
2021/10/19 06:01:42;;;;;;;;;17.50;17.00;;;;;17.94;59.64;101538.91;5096789;27;45260;-59
2021/10/19 06:04:08;;;;;;;;;15.25;13.25;;;;;17.93;59.50;101526.50;5078826;27;45331;-58
2021/10/19 06:06:33;;;;;;;;;16.75;14.00;;;;;17.92;59.73;101524.75;5090424;27;46188;-60
2021/10/19 06:08:58;;;;;;;;;17.50;16.50;;;;;17.88;59.59;101528.44;5103553;27;45252;-59
2021/10/19 06:11:24;;;;;;;;;16.00;16.00;;;;;17.91;59.68;101527.47;5072537;27;45386;-59
2021/10/19 06:13:49;;;;;;;;;17.00;15.75;;;;;17.90;59.77;101531.06;5090027;27;45369;-59
2021/10/19 06:16:14;;;;;;;;;18.50;18.50;;;;;17.91;59.46;101532.78;5101054;27;46513;-60
2021/10/19 06:18:40;;;;;;;;;13.75;13.75;;;;;17.87;59.34;101540.88;5098973;27;45314;-53
2021/10/19 06:21:05;;;;;;;;;16.50;15.75;;;;;17.91;59.72;101543.44;5102133;27;45342;-59
2021/10/19 06:23:31;;;;;;;;;25.50;22.25;;;;;17.89;59.27;101540.81;5101941;27;45362;-52
2021/10/19 06:25:56;;;;;;;;;18.75;16.00;;;;;17.90;59.49;101533.72;5101989;27;46324;-52
2021/10/19 06:28:22;;;;;;;;;18.50;17.25;;;;;17.89;59.61;101547.94;5101600;27;45237;-52
2021/10/19 06:30:48;;;;;;;;;15.25;14.25;;;;;17.89;59.53;101550.59;5101942;27;45394;-58
2021/10/19 06:33:13;;;;;;;;;15.00;13.75;;;;;17.85;59.73;101544.50;5101798;27;45467;-57
2021/10/19 06:35:41;;;;;;;;;19.75;16.75;;;;;17.85;59.39;101542.72;5097652;27;45423;-57
2021/10/19 06:38:07;;;;;;;;;18.25;17.25;;;;;17.87;59.59;101547.97;5103333;27;45328;-57
2021/10/19 06:40:33;;;;;;;;;17.75;16.25;;;;;17.90;59.16;101549.66;5102122;27;45419;-58
2021/10/19 06:42:59;;;;;;;;;16.00;14.25;;;;;17.87;59.44;101548.88;5084380;27;45514;-61
2021/10/19 06:45:24;;;;;;;;;16.50;16.50;;;;;17.86;59.59;101544.47;5082606;27;46914;-61
2021/10/19 06:47:50;;;;;;;;;18.50;18.25;;;;;17.89;59.50;101548.81;5100389;27;45252;-61
2021/10/19 06:50:15;;;;;;;;;19.50;17.00;;;;;17.89;59.55;101554.13;5099827;27;45156;-60
2021/10/19 06:52:41;;;;;;;;;14.50;14.50;;;;;17.83;59.48;101544.53;5083257;27;45273;-61
2021/10/19 06:55:07;;;;;;;;;16.75;14.25;;;;;17.87;59.51;101558.59;5100843;27;47009;-58
2021/10/19 06:57:44;;;;;;;;;17.00;17.00;;;;;17.87;59.46;101555.94;5100672;27;45340;-59
2021/10/19 07:00:12;;;;;;;;;15.00;14.50;;;;;17.88;59.64;101555.03;5098599;27;45740;-58
2021/10/19 07:02:37;;;;;;;;;15.75;13.25;;;;;17.86;59.43;101560.41;5095929;27;45378;-58
2021/10/19 07:05:04;;;;;;;;;19.50;16.50;;;;;17.88;59.35;101563.00;5099205;27;45902;-58
2021/10/19 07:07:29;;;;;;;;;15.75;15.75;;;;;17.87;59.61;101553.28;5100738;27;45379;-58
2021/10/19 07:09:54;;;;;;;;;17.75;17.25;;;;;17.87;59.64;101564.81;5101086;27;45494;-58
2021/10/19 07:12:20;;;;;;;;;16.50;14.75;;;;;17.87;59.50;101559.50;5098420;27;45418;-58
2021/10/19 07:14:47;;;;;;;;;18.00;16.50;;;;;17.87;59.27;101558.59;5100844;27;45882;-58
2021/10/19 07:17:13;;;;;;;;;17.25;16.75;;;;;17.91;59.43;101564.69;5099825;27;45341;-58
2021/10/19 07:19:39;;;;;;;;;18.50;16.25;;;;;17.86;59.53;101557.75;5099589;27;45255;-58
2021/10/19 07:22:05;;;;;;;;;14.00;14.00;;;;;17.88;59.50;101557.69;5080993;27;45343;-58
2021/10/19 07:24:30;;;;;;;;;19.75;19.75;;;;;17.89;59.58;101561.25;5099827;27;45422;-54
2021/10/19 07:26:56;;;;;;;;;18.50;15.75;;;;;17.88;59.51;101560.34;5098310;27;45309;-56
2021/10/19 07:29:21;;;;;;;;;22.75;20.25;;;;;17.92;59.45;101559.31;5081072;27;45275;-58
2021/10/19 07:31:47;;;;;;;;;19.75;16.00;;;;;17.93;59.43;101569.06;5100900;27;45343;-59
2021/10/19 07:34:12;;;;;;;;;17.00;16.25;;;;;17.93;59.26;101563.72;5100670;27;45410;-58
2021/10/19 07:36:38;;;;;;;;;19.75;18.00;;;;;17.94;59.59;101564.66;5077083;27;45739;-58
2021/10/19 07:39:04;;;;;;;;;16.25;15.00;;;;;17.92;59.42;101561.13;5101133;27;45515;-50
2021/10/19 07:41:29;;;;;;;;;15.75;14.50;;;;;17.95;59.24;101575.22;5098256;27;45319;-49
2021/10/19 07:43:55;;;;;;;;;15.00;14.25;;;;;17.94;59.12;101569.97;5100412;27;46049;-48
2021/10/19 07:46:20;;;;;;;;;16.00;15.50;;;;;17.97;59.17;101573.38;5100989;27;45441;-50
2021/10/19 07:48:45;;;;;;;;;16.75;14.75;;;;;17.97;59.17;101578.69;5100122;27;45597;-48
2021/10/19 07:51:11;;;;;;;;;14.75;14.75;;;;;17.99;59.12;101571.56;5100882;27;45376;-47
2021/10/19 07:53:36;;;;;;;;;15.25;13.75;;;;;17.99;59.36;101563.56;5102111;27;45442;-45
2021/10/19 07:56:01;;;;;;;;;16.50;15.00;;;;;18.00;59.23;101567.13;5083872;27;45760;-49
2021/10/19 07:58:27;;;;;;;;;16.00;13.50;;;;;18.05;59.27;101573.16;5101777;27;45308;-49
2021/10/19 08:00:53;;;;;;;;;17.50;14.25;;;;;18.02;59.40;101575.91;5101923;27;45422;-49
2021/10/19 08:03:18;;;;;;;;;13.00;13.00;;;;;18.02;59.40;101565.25;5101700;27;46438;-49
2021/10/19 08:05:44;;;;;;;;;15.50;13.25;;;;;18.07;59.23;101568.63;5102115;27;45166;-49
2021/10/19 08:08:15;;;;;;;;;17.75;17.75;;;;;18.10;59.26;101570.31;5102025;27;45350;-46
2021/10/19 08:10:45;;;;;;;;;17.75;15.75;;;;;18.13;58.93;101568.44;5102012;27;45284;-49
2021/10/19 08:13:11;;;;;;;;;14.75;12.00;;;;;18.14;58.72;101577.31;5101556;27;45343;-51
2021/10/19 08:15:37;;;;;;;;;22.50;17.00;;;;;18.17;58.74;101578.03;5101476;27;45435;-46
2021/10/19 08:18:04;;;;;;;;;17.25;14.25;;;;;18.19;58.73;101588.66;5102218;27;45316;-48
2021/10/19 08:20:30;;;;;;;;;16.50;15.00;;;;;18.24;59.06;101585.81;5101840;27;45465;-48
2021/10/19 08:22:56;;;;;;;;;12.75;11.75;;;;;18.27;58.92;101588.41;5093053;27;45243;-50
2021/10/19 08:25:22;;;;;;;;;14.00;13.50;;;;;18.27;58.52;101597.25;5081039;27;45425;-47
2021/10/19 08:27:47;;;;;;;;;14.75;14.00;;;;;18.31;58.49;101595.34;5081180;27;45336;-51
2021/10/19 08:30:15;;;;;;;;;14.75;14.00;;;;;18.34;58.71;101603.25;5091100;27;45347;-50
2021/10/19 08:32:42;;;;;;;;;14.50;12.50;;;;;18.35;58.93;101611.19;5101989;27;45363;-48
2021/10/19 08:35:09;;;;;;;;;15.25;13.75;;;;;18.44;58.41;101611.78;5089026;27;45262;-48
2021/10/19 08:37:35;;;;;;;;;15.00;13.00;;;;;18.43;58.54;101610.91;5097796;27;45311;-46
2021/10/19 08:40:01;;;;;;;;;15.50;14.00;;;;;18.53;58.58;101611.47;5101463;27;45166;-45
2021/10/19 08:42:27;;;;;;;;;15.50;14.25;;;;;18.59;58.32;101613.06;5093319;27;45448;-47
2021/10/19 08:44:53;;;;;;;;;16.75;15.75;;;;;18.62;58.17;101627.13;5101046;27;45338;-48
2021/10/19 08:47:18;;;;;;;;;14.25;14.25;;;;;18.68;58.30;101624.25;5101669;27;45330;-50
2021/10/19 08:49:43;;;;;;;;;13.00;12.25;;;;;18.76;58.21;101618.66;5101597;27;45236;-48
2021/10/19 08:52:09;;;;;;;;;17.00;14.50;;;;;18.83;58.16;101612.22;5101440;27;45216;-47
2021/10/19 08:54:36;;;;;;;;;11.75;11.25;;;;;18.93;58.35;101619.91;5101351;27;45358;-52
2021/10/19 08:57:02;;;;;;;;;13.00;12.75;;;;;19.02;57.69;101619.59;5101275;27;45283;-50
2021/10/19 08:59:28;;;;;;;;;13.75;13.50;;;;;19.10;57.50;101606.00;5100926;27;45442;-48
2021/10/19 09:01:56;;;;;;;;;12.50;11.75;;;;;19.17;57.62;101612.84;5082828;27;45975;-49
2021/10/19 09:04:28;;;;;;;;;16.00;13.50;;;;;19.26;57.60;101614.31;5101169;27;45232;-46
2021/10/19 09:06:53;;;;;;;;;13.75;11.00;;;;;19.31;57.44;101607.88;5101366;27;45348;-50
2021/10/19 09:09:24;;;;;;;;;10.75;10.75;;;;;19.40;57.61;101601.31;5101020;27;45412;-51
2021/10/19 09:11:51;;;;;;;;;12.00;12.00;;;;;19.46;57.68;101606.41;5082751;27;47271;-48
2021/10/19 09:14:19;;;;;;;;;12.50;12.00;;;;;19.53;57.40;101609.72;5082349;27;45361;-48
2021/10/19 09:16:46;;;;;;;;;13.25;13.25;;;;;19.60;57.29;101602.38;5101038;27;45283;-48
2021/10/19 09:19:14;;;;;;;;;10.50;10.50;;;;;19.65;57.39;101603.91;5100990;27;45208;-51
2021/10/19 09:21:45;;;;;;;;;15.25;14.50;;;;;19.69;57.07;101596.66;5100787;27;46054;-46
2021/10/19 09:24:21;;;;;;;;;13.00;12.50;;;;;19.78;57.33;101598.97;5082559;27;45568;-47
2021/10/19 09:26:59;;;;;;;;;15.50;14.00;;;;;19.85;56.51;101593.44;5101007;27;45250;-50
2021/10/19 09:29:27;;;;;;;;;12.75;12.25;;;;;19.92;56.47;101600.25;5087878;27;45332;-48
2021/10/19 09:31:56;;;;;;;;;12.50;11.25;;;;;19.97;56.55;101592.94;5100585;27;48398;-48
2021/10/19 09:34:23;;;;;;;;;15.50;14.50;;;;;20.06;56.87;101600.59;5100899;27;45231;-46
2021/10/19 09:36:50;;;;;;;;;14.50;13.75;;;;;20.17;56.31;101597.47;5100732;27;45263;-46
2021/10/19 09:39:37;;;;;;;;;17.75;14.50;;;;;20.29;56.76;101590.78;5100797;27;45272;-46
2021/10/19 09:42:09;;;;;;;;;12.00;12.00;;;;;20.40;56.57;101595.63;5100444;27;45357;-46
2021/10/19 09:44:35;;;;;;;;;18.75;17.00;;;;;20.53;56.34;101604.88;5082039;27;45420;-51
2021/10/19 09:47:02;;;;;;;;;14.50;13.50;;;;;20.63;56.20;101598.19;5100519;27;45447;-48
2021/10/19 09:49:29;;;;;;;;;16.50;15.00;;;;;20.74;56.67;101592.44;5100465;27;45475;-49
2021/10/19 09:51:57;;;;;;;;;15.00;13.00;;;;;20.94;56.22;101596.03;5100264;27;46362;-49
2021/10/19 09:54:27;;;;;;;;;14.00;10.50;;;;;21.08;56.14;101593.63;5100564;27;45257;-53
2021/10/19 09:56:57;;;;;;;;;13.75;12.75;;;;;21.21;56.49;101595.75;5100600;27;45298;-50
2021/10/19 09:59:23;;;;;;;;;16.75;16.75;;;;;21.34;55.80;101599.56;5095095;27;45312;-52
2021/10/19 10:01:49;;;;;;;;;12.00;11.50;;;;;21.46;55.97;101602.59;5099237;27;46556;-50
2021/10/19 10:04:15;;;;;;;;;14.00;14.00;;;;;21.53;55.50;101602.25;5097738;27;45334;-52
2021/10/19 10:06:41;;;;;;;;;12.25;11.25;;;;;21.60;55.77;101605.56;5079901;28;45521;-49
2021/10/19 10:09:08;;;;;;;;;12.25;11.00;;;;;21.67;56.01;101596.31;5080170;27;45628;-51
2021/10/19 10:11:38;;;;;;;;;14.00;12.25;;;;;21.75;55.62;101596.78;5087607;27;45482;-51
2021/10/19 10:14:04;;;;;;;;;16.00;14.00;;;;;21.84;55.38;101603.50;5078746;27;45229;-51
2021/10/19 10:16:41;;;;;;;;;12.00;12.00;;;;;21.89;55.10;101603.31;5093065;27;45317;-52
2021/10/19 10:19:17;;;;;;;;;14.25;13.00;;;;;21.98;54.76;101597.50;5084563;27;45323;-53
2021/10/19 10:21:53;;;;;;;;;13.00;13.00;;;;;22.04;54.69;101599.88;5093017;27;46016;-50
2021/10/19 10:24:29;;;;;;;;;14.75;13.50;;;;;22.08;54.58;101589.88;5086284;27;45350;-51
2021/10/19 10:27:09;;;;;;;;;15.75;14.25;;;;;22.11;54.21;101589.72;5087346;27;45463;-51
2021/10/19 10:29:43;;;;;;;;;14.25;13.50;;;;;22.12;54.13;101590.59;5088902;27;45389;-52
2021/10/19 10:32:26;;;;;;;;;13.25;12.50;;;;;22.17;54.25;101599.28;5097628;27;45245;-51
2021/10/19 10:35:08;;;;;;;;;12.50;11.50;;;;;22.22;54.20;101598.09;5079234;27;45272;-51
2021/10/19 10:37:37;;;;;;;;;16.25;14.50;;;;;22.28;53.94;101598.75;5097828;27;45366;-52
2021/10/19 10:40:04;;;;;;;;;12.25;12.25;;;;;22.28;53.84;101586.22;5099847;27;45260;-52
2021/10/19 10:42:41;;;;;;;;;14.50;14.50;;;;;22.31;53.57;101590.53;5099419;27;46296;-53
2021/10/19 10:45:21;;;;;;;;;16.25;16.25;;;;;22.33;53.65;101592.19;5099289;27;45341;-52
2021/10/19 10:47:53;;;;;;;;;14.25;13.75;;;;;22.33;53.92;101589.53;5103106;27;45396;-53
2021/10/19 10:50:19;;;;;;;;;14.00;14.00;;;;;22.41;53.48;101586.47;5102732;27;45261;-54
2021/10/19 10:52:58;;;;;;;;;15.00;15.00;;;;;22.43;53.76;101579.25;5102733;27;45182;-53
2021/10/19 10:55:23;;;;;;;;;17.75;16.00;;;;;22.51;53.38;101573.50;5102831;27;45270;-52
2021/10/19 10:57:49;;;;;;;;;15.25;14.75;;;;;22.55;53.52;101567.03;5102716;27;45314;-50
2021/10/19 11:00:14;;;;;;;;;12.25;11.50;;;;;22.59;53.13;101571.31;5095573;27;45602;-54
2021/10/19 11:02:40;;;;;;;;;16.00;13.75;;;;;22.66;53.26;101570.03;5102500;27;47020;-53
2021/10/19 11:05:05;;;;;;;;;14.50;14.50;;;;;22.71;53.22;101565.28;5089911;27;45390;-54
2021/10/19 11:07:35;;;;;;;;;14.25;13.25;;;;;22.76;53.09;101569.56;5096991;27;45307;-51